createdAt,value
2019-05-04T00:01:00.433Z,83.70
2019-05-04T00:03:31.031Z,83.70
2019-05-04T00:06:05.192Z,83.50
2019-05-04T00:08:35.803Z,83.60
2019-05-04T00:11:06.434Z,83.60
2019-05-04T00:13:36.851Z,84.30
2019-05-04T00:16:07.363Z,84.60
2019-05-04T00:18:37.828Z,84.10
2019-05-04T00:21:08.218Z,84.40
2019-05-04T00:23:38.659Z,84.40
2019-05-04T00:26:09.144Z,84.20
2019-05-04T00:28:39.601Z,84.30
2019-05-04T00:31:09.998Z,84.20
2019-05-04T00:33:54.536Z,84.50
2019-05-04T00:36:40.757Z,84.70
2019-05-04T00:39:15.702Z,84.60
2019-05-04T00:41:47.052Z,85.20
2019-05-04T00:44:17.566Z,85.00
2019-05-04T00:46:47.952Z,85.00
2019-05-04T00:49:18.387Z,86.10
2019-05-04T00:51:48.833Z,86.30
2019-05-04T00:54:19.367Z,85.80
2019-05-04T00:56:52.173Z,86.90
2019-05-04T00:59:27.942Z,86.40
2019-05-04T01:02:17.876Z,86.70
2019-05-04T01:04:48.280Z,86.20
2019-05-04T01:07:21.373Z,86.50
2019-05-04T01:09:50.869Z,87.10
2019-05-04T01:12:21.314Z,87.40
2019-05-04T01:14:51.731Z,87.50
2019-05-04T01:17:22.191Z,88.00
2019-05-04T01:19:52.650Z,87.90
2019-05-04T01:22:25.102Z,87.90
2019-05-04T01:24:55.433Z,88.20
2019-05-04T01:27:25.812Z,89.50
2019-05-04T01:29:56.247Z,89.80
2019-05-04T01:32:26.685Z,90.10
2019-05-04T01:35:06.395Z,90.40
2019-05-04T01:37:56.595Z,90.60
2019-05-04T01:40:35.873Z,90.60
2019-05-04T01:43:06.427Z,91.00
2019-05-04T01:45:37.117Z,91.70
2019-05-04T01:48:07.587Z,92.20
2019-05-04T01:50:38.046Z,92.80
2019-05-04T01:53:26.084Z,93.20
2019-05-04T01:56:10.826Z,93.50
2019-05-04T01:58:48.551Z,94.00
2019-05-04T02:01:19.479Z,94.20
2019-05-04T02:03:49.923Z,95.10
2019-05-04T02:06:20.347Z,95.30
2019-05-04T02:08:59.095Z,95.60
2019-05-04T02:11:29.749Z,95.90
2019-05-04T02:14:00.256Z,95.90
2019-05-04T02:16:30.706Z,96.30
2019-05-04T02:19:01.348Z,96.60
2019-05-04T02:21:35.339Z,97.40
2019-05-04T02:24:06.080Z,97.50
2019-05-04T02:26:45.017Z,97.40
2019-05-04T02:29:35.145Z,97.50
2019-05-04T02:32:09.890Z,97.70
2019-05-04T02:34:40.276Z,98.30
2019-05-04T02:37:10.775Z,98.30
2019-05-04T02:39:41.225Z,98.70
2019-05-04T02:42:12.082Z,98.60
2019-05-04T02:44:45.428Z,98.90
2019-05-04T02:47:38.088Z,98.70
2019-05-04T02:50:17.019Z,98.90
2019-05-04T02:52:47.588Z,99.10
2019-05-04T02:55:18.001Z,99.60
2019-05-04T02:57:48.403Z,99.70
2019-05-04T03:00:18.970Z,99.90
2019-05-04T03:02:49.483Z,99.90
2019-05-04T03:05:19.923Z,99.90
2019-05-04T03:07:50.362Z,99.90
2019-05-04T03:10:21.088Z,99.90
2019-05-04T03:12:51.485Z,99.90
2019-05-04T03:15:21.918Z,99.90
2019-05-04T03:18:05.370Z,99.90
2019-05-04T03:20:47.815Z,99.90
2019-05-04T03:23:19.738Z,99.90
2019-05-04T03:25:50.176Z,99.90
2019-05-04T03:28:20.587Z,99.90
2019-05-04T03:30:51.076Z,99.90
2019-05-04T03:33:21.468Z,99.90
2019-05-04T03:36:01.834Z,99.90
2019-05-04T03:38:27.589Z,99.90
2019-05-04T03:40:56.642Z,99.90
2019-05-04T03:43:27.299Z,99.90
2019-05-04T03:46:09.626Z,99.90
2019-05-04T03:49:01.537Z,99.90
2019-05-04T03:51:35.335Z,99.90
2019-05-04T03:54:06.174Z,99.90
2019-05-04T03:56:36.815Z,99.90
2019-05-04T03:59:07.266Z,99.90
2019-05-04T04:01:37.958Z,99.90
2019-05-04T04:04:08.351Z,99.90
2019-05-04T04:06:38.786Z,99.90
2019-05-04T04:09:14.711Z,99.90
2019-05-04T04:11:41.728Z,99.90
2019-05-04T04:14:12.137Z,99.90
2019-05-04T04:17:00.529Z,99.90
2019-05-04T04:19:32.071Z,99.90
2019-05-04T04:22:05.621Z,99.90
2019-05-04T04:24:35.819Z,99.60
2019-05-04T04:27:15.619Z,99.20
2019-05-04T04:29:46.740Z,99.10
2019-05-04T04:32:17.139Z,99.30
2019-05-04T04:34:47.535Z,98.80
2019-05-04T04:37:17.998Z,98.60
2019-05-04T04:39:48.419Z,99.20
2019-05-04T04:42:18.851Z,98.80
2019-05-04T04:44:49.232Z,98.60
2019-05-04T04:47:19.682Z,99.20
2019-05-04T04:49:50.243Z,99.10
2019-05-04T04:52:20.673Z,98.80
2019-05-04T04:54:51.328Z,98.30
2019-05-04T04:57:39.357Z,97.90
2019-05-04T05:00:34.753Z,97.90
2019-05-04T05:03:05.413Z,98.20
2019-05-04T05:05:46.196Z,99.10
2019-05-04T05:08:17.146Z,98.70
2019-05-04T05:10:47.561Z,99.10
2019-05-04T05:13:18.094Z,99.10
2019-05-04T05:15:48.478Z,99.50
2019-05-04T05:18:18.890Z,99.30
2019-05-04T05:21:17.233Z,99.40
2019-05-04T05:23:47.713Z,99.10
2019-05-04T05:26:18.107Z,98.60
2019-05-04T05:28:48.513Z,99.00
2019-05-04T05:31:56.013Z,98.40
2019-05-04T05:34:35.140Z,99.00
2019-05-04T05:37:05.216Z,99.10
2019-05-04T05:39:35.695Z,98.60
2019-05-04T05:42:06.098Z,97.30
2019-05-04T05:44:39.730Z,98.10
2019-05-04T05:47:36.778Z,96.40
2019-05-04T05:50:19.110Z,96.70
2019-05-04T05:53:10.155Z,97.40
2019-05-04T05:55:51.823Z,97.70
2019-05-04T05:58:44.569Z,97.50
2019-05-04T06:01:32.073Z,97.40
2019-05-04T06:04:30.641Z,97.80
2019-05-04T06:07:05.918Z,97.30
2019-05-04T06:09:36.311Z,96.00
2019-05-04T06:12:16.542Z,96.00
2019-05-04T06:14:54.669Z,96.40
2019-05-04T06:17:44.793Z,96.20
2019-05-04T06:20:31.778Z,96.90
2019-05-04T06:23:06.658Z,96.40
2019-05-04T06:26:08.108Z,96.00
2019-05-04T06:28:51.110Z,96.40
2019-05-04T06:31:41.077Z,97.70
2019-05-04T06:34:14.725Z,96.80
2019-05-04T06:36:55.119Z,97.60
2019-05-04T06:39:44.945Z,95.90
2019-05-04T06:42:20.636Z,96.20
2019-05-04T06:45:14.533Z,96.60
2019-05-04T06:47:51.971Z,98.10
2019-05-04T06:50:20.324Z,96.60
2019-05-04T06:53:11.206Z,96.20
2019-05-04T06:55:49.235Z,96.40
2019-05-04T06:58:25.144Z,97.00
2019-05-04T07:01:04.067Z,97.10
2019-05-04T07:03:35.253Z,97.20
2019-05-04T07:06:06.045Z,96.60
2019-05-04T07:08:40.294Z,96.30
2019-05-04T07:11:25.827Z,95.50
2019-05-04T07:13:41.857Z,95.90
2019-05-04T07:16:12.330Z,95.70
2019-05-04T07:18:44.494Z,95.00
2019-05-04T07:21:19.464Z,95.70
2019-05-04T07:23:49.795Z,96.00
2019-05-04T07:26:19.678Z,97.00
2019-05-04T07:28:51.768Z,96.40
2019-05-04T07:31:28.032Z,95.70
2019-05-04T07:34:03.951Z,95.80
2019-05-04T07:37:04.832Z,96.30
2019-05-04T07:39:42.724Z,93.90
2019-05-04T07:42:44.054Z,94.50
2019-05-04T07:45:14.592Z,95.50
2019-05-04T07:47:45.099Z,95.60
2019-05-04T07:50:17.075Z,94.30
2019-05-04T07:52:49.729Z,94.10
2019-05-04T07:55:19.741Z,94.10
2019-05-04T07:57:50.311Z,93.50
2019-05-04T08:00:20.865Z,92.60
2019-05-04T08:02:51.359Z,92.30
2019-05-04T08:05:27.260Z,91.80
2019-05-04T08:07:55.028Z,91.10
2019-05-04T08:10:30.138Z,91.20
2019-05-04T08:13:04.386Z,90.60
2019-05-04T08:15:37.230Z,91.40
2019-05-04T08:18:05.469Z,90.10
2019-05-04T08:20:35.524Z,90.80
2019-05-04T08:23:06.228Z,87.50
2019-05-04T08:25:41.136Z,85.60
2019-05-04T08:28:09.000Z,82.90
2019-05-04T08:30:40.107Z,84.30
2019-05-04T08:33:11.894Z,83.10
2019-05-04T08:35:44.323Z,84.10
2019-05-04T08:38:14.897Z,80.30
2019-05-04T08:40:45.496Z,79.60
2019-05-04T08:43:16.405Z,80.60
2019-05-04T08:45:55.418Z,77.00
2019-05-04T08:48:24.623Z,77.60
2019-05-04T08:51:15.368Z,78.60
2019-05-04T08:53:50.352Z,76.80
2019-05-04T08:56:39.932Z,75.10
2019-05-04T08:59:15.390Z,76.90
2019-05-04T09:01:58.566Z,76.20
2019-05-04T09:04:28.974Z,72.60
2019-05-04T09:07:07.016Z,71.70
2019-05-04T09:09:31.889Z,71.00
2019-05-04T09:12:17.977Z,71.60
2019-05-04T09:14:37.467Z,66.00
2019-05-04T09:17:09.860Z,67.30
2019-05-04T09:19:41.919Z,64.80
2019-05-04T09:22:20.509Z,64.00
2019-05-04T09:24:48.670Z,64.80
2019-05-04T09:27:20.180Z,65.30
2019-05-04T09:29:50.973Z,64.60
2019-05-04T09:32:30.885Z,67.90
2019-05-04T09:34:54.839Z,68.60
2019-05-04T09:37:25.451Z,66.90
2019-05-04T09:40:03.062Z,68.90
2019-05-04T09:42:50.654Z,68.90
2019-05-04T09:45:19.555Z,67.80
2019-05-04T09:47:51.418Z,67.60
2019-05-04T09:50:21.817Z,68.90
2019-05-04T09:53:14.330Z,67.40
2019-05-04T09:55:31.177Z,67.70
2019-05-04T09:58:29.922Z,66.00
2019-05-04T10:00:56.297Z,69.70
2019-05-04T10:03:26.805Z,67.80
2019-05-04T10:05:57.782Z,65.50
2019-05-04T10:08:28.220Z,67.00
2019-05-04T10:11:05.119Z,66.60
2019-05-04T10:13:56.469Z,67.80
2019-05-04T10:16:51.724Z,68.90
2019-05-04T10:19:24.481Z,69.40
2019-05-04T10:21:56.139Z,70.20
2019-05-04T10:24:29.251Z,72.60
2019-05-04T10:27:04.499Z,71.20
2019-05-04T10:29:35.219Z,68.20
2019-05-04T10:32:05.990Z,70.10
2019-05-04T10:34:36.490Z,70.20
2019-05-04T10:37:07.169Z,67.90
2019-05-04T10:39:37.639Z,64.40
2019-05-04T10:42:08.293Z,66.80
2019-05-04T10:44:38.747Z,66.90
2019-05-04T10:47:09.319Z,66.70
2019-05-04T10:49:39.760Z,64.60
2019-05-04T10:52:10.162Z,63.50
2019-05-04T10:54:40.600Z,63.90
2019-05-04T10:57:11.030Z,63.20
2019-05-04T10:59:41.450Z,63.50
2019-05-04T11:02:11.936Z,59.40
2019-05-04T11:04:44.685Z,61.70
2019-05-04T11:07:14.578Z,59.30
2019-05-04T11:09:44.989Z,60.30
2019-05-04T11:12:15.572Z,60.90
2019-05-04T11:14:46.058Z,58.10
2019-05-04T11:17:16.529Z,60.70
2019-05-04T11:19:46.953Z,59.70
2019-05-04T11:22:17.396Z,59.10
2019-05-04T11:25:07.411Z,59.10
2019-05-04T11:27:37.841Z,56.10
2019-05-04T11:30:09.537Z,58.10
2019-05-04T11:32:40.096Z,57.80
2019-05-04T11:35:12.004Z,55.30
2019-05-04T11:37:42.486Z,52.50
2019-05-04T11:40:14.182Z,54.40
2019-05-04T11:42:44.984Z,55.50
2019-05-04T11:45:15.611Z,54.20
2019-05-04T11:47:46.116Z,52.10
2019-05-04T11:50:16.681Z,52.50
2019-05-04T11:52:47.157Z,53.50
2019-05-04T11:55:17.733Z,53.40
2019-05-04T11:57:48.229Z,51.60
2019-05-04T12:00:22.222Z,51.40
2019-05-04T12:03:01.328Z,51.00
2019-05-04T12:05:55.455Z,50.60
2019-05-04T12:08:35.052Z,50.80
2019-05-04T12:11:05.920Z,51.70
2019-05-04T12:13:43.531Z,50.00
2019-05-04T12:16:08.617Z,48.80
2019-05-04T12:18:39.107Z,46.20
2019-05-04T12:21:09.599Z,48.30
2019-05-04T12:23:40.045Z,47.30
2019-05-04T12:26:10.549Z,49.80
2019-05-04T12:28:41.050Z,47.10
2019-05-04T12:31:11.743Z,48.80
2019-05-04T12:33:42.232Z,49.70
2019-05-04T12:36:14.870Z,46.40
2019-05-04T12:38:44.945Z,48.40
2019-05-04T12:41:15.413Z,48.40
2019-05-04T12:43:58.682Z,48.00
2019-05-04T12:46:18.159Z,49.00
2019-05-04T12:48:48.574Z,48.10
2019-05-04T12:51:19.092Z,48.20
2019-05-04T12:53:49.651Z,44.10
2019-05-04T12:56:20.156Z,44.10
2019-05-04T12:58:50.672Z,44.70
2019-05-04T13:01:21.071Z,46.20
2019-05-04T13:03:51.596Z,46.10
2019-05-04T13:06:22.062Z,45.70
2019-05-04T13:08:54.263Z,45.30
2019-05-04T13:11:25.165Z,46.90
2019-05-04T13:13:55.684Z,46.90
2019-05-04T13:16:26.120Z,48.60
2019-05-04T13:19:16.953Z,46.10
2019-05-04T13:21:47.409Z,45.50
2019-05-04T13:24:17.974Z,44.80
2019-05-04T13:26:48.537Z,45.80
2019-05-04T13:29:19.269Z,45.70
2019-05-04T13:31:49.787Z,45.60
2019-05-04T13:34:20.254Z,45.00
2019-05-04T13:36:50.704Z,45.80
2019-05-04T13:39:21.154Z,45.70
2019-05-04T13:41:51.637Z,46.10
2019-05-04T13:44:29.067Z,46.60
2019-05-04T13:46:54.770Z,47.90
2019-05-04T13:49:25.430Z,46.90
2019-05-04T13:51:55.904Z,46.60
2019-05-04T13:54:35.757Z,47.40
2019-05-04T13:57:19.511Z,47.40
2019-05-04T13:59:59.349Z,48.60
2019-05-04T14:02:54.882Z,49.40
2019-05-04T14:05:25.321Z,55.40
2019-05-04T14:07:55.895Z,56.80
2019-05-04T14:10:26.298Z,61.20
2019-05-04T14:12:56.762Z,65.30
2019-05-04T14:15:29.873Z,68.50
2019-05-04T14:17:59.789Z,70.60
2019-05-04T14:20:30.326Z,74.60
2019-05-04T14:23:00.907Z,72.10
2019-05-04T14:25:31.363Z,71.60
2019-05-04T14:28:01.893Z,73.50
2019-05-04T14:30:32.438Z,69.30
2019-05-04T14:33:04.910Z,70.90
2019-05-04T14:35:35.509Z,68.10
2019-05-04T14:38:09.204Z,65.60
2019-05-04T14:40:40.081Z,71.10
2019-05-04T14:43:14.512Z,68.60
2019-05-04T14:46:05.805Z,61.90
2019-05-04T14:48:41.675Z,56.90
2019-05-04T14:51:12.386Z,61.40
2019-05-04T14:53:44.164Z,58.60
2019-05-04T14:56:17.256Z,56.20
2019-05-04T14:58:48.684Z,53.90
2019-05-04T15:01:21.734Z,54.30
2019-05-04T15:03:54.204Z,54.80
2019-05-04T15:06:24.908Z,58.30
2019-05-04T15:08:57.509Z,56.20
2019-05-04T15:11:28.137Z,55.80
2019-05-04T15:13:59.796Z,55.20
2019-05-04T15:16:30.273Z,57.80
2019-05-04T15:19:25.163Z,55.90
2019-05-04T15:21:57.887Z,57.40
2019-05-04T15:24:28.438Z,57.20
2019-05-04T15:26:58.893Z,57.20
2019-05-04T15:29:29.715Z,58.30
2019-05-04T15:32:00.225Z,57.20
2019-05-04T15:34:31.747Z,55.90
2019-05-04T15:37:02.204Z,57.90
2019-05-04T15:39:34.781Z,56.00
2019-05-04T15:42:05.540Z,56.60
2019-05-04T15:44:36.156Z,54.60
2019-05-04T15:47:06.910Z,53.50
2019-05-04T15:49:37.462Z,55.70
2019-05-04T15:52:18.603Z,54.80
2019-05-04T15:55:06.848Z,52.50
2019-05-04T15:57:47.310Z,50.70
2019-05-04T16:00:22.605Z,50.70
2019-05-04T16:02:54.749Z,48.60
2019-05-04T16:05:25.772Z,51.50
2019-05-04T16:07:58.943Z,51.60
2019-05-04T16:10:30.933Z,51.80
2019-05-04T16:13:01.690Z,50.40
2019-05-04T16:15:40.360Z,53.10
2019-05-04T16:18:05.876Z,53.60
2019-05-04T16:20:37.173Z,53.80
2019-05-04T16:23:07.720Z,53.20
2019-05-04T16:25:38.400Z,53.00
2019-05-04T16:28:09.076Z,54.40
2019-05-04T16:30:39.560Z,55.10
2019-05-04T16:33:13.376Z,53.90
2019-05-04T16:35:42.749Z,54.50
2019-05-04T16:38:14.159Z,55.40
2019-05-04T16:40:46.484Z,54.80
2019-05-04T16:43:17.736Z,54.90
2019-05-04T16:45:55.720Z,55.90
2019-05-04T16:48:24.197Z,56.30
2019-05-04T16:51:14.630Z,54.80
2019-05-04T16:53:46.798Z,54.20
2019-05-04T16:56:17.352Z,53.70
2019-05-04T16:58:48.099Z,53.50
2019-05-04T17:01:37.717Z,54.40
2019-05-04T17:04:29.174Z,55.20
2019-05-04T17:06:59.822Z,54.80
2019-05-04T17:09:30.432Z,55.10
2019-05-04T17:12:00.945Z,54.70
2019-05-04T17:14:31.439Z,55.50
2019-05-04T17:17:05.168Z,56.40
2019-05-04T17:19:37.414Z,55.70
2019-05-04T17:22:09.955Z,55.40
2019-05-04T17:24:50.286Z,55.00
2019-05-04T17:27:40.079Z,53.90
2019-05-04T17:30:16.944Z,54.10
2019-05-04T17:32:47.647Z,57.40
2019-05-04T17:35:18.402Z,57.00
2019-05-04T17:37:48.989Z,58.10
2019-05-04T17:40:19.704Z,60.80
2019-05-04T17:42:58.111Z,64.10
2019-05-04T17:45:30.239Z,68.20
2019-05-04T17:48:00.929Z,69.60
2019-05-04T17:50:31.523Z,74.50
2019-05-04T17:53:02.249Z,77.00
2019-05-04T17:55:34.630Z,80.70
2019-05-04T17:58:05.332Z,82.00
2019-05-04T18:00:45.012Z,83.70
2019-05-04T18:03:24.634Z,83.80
2019-05-04T18:05:55.440Z,83.80
2019-05-04T18:08:26.224Z,83.60
2019-05-04T18:11:14.287Z,87.70
2019-05-04T18:13:56.363Z,88.40
2019-05-04T18:16:38.959Z,89.50
2019-05-04T18:19:07.313Z,90.20
2019-05-04T18:21:37.791Z,90.50
2019-05-04T18:24:08.439Z,90.50
2019-05-04T18:26:39.114Z,90.90
2019-05-04T18:29:09.800Z,90.70
2019-05-04T18:31:40.481Z,89.30
2019-05-04T18:34:11.529Z,90.10
2019-05-04T18:36:42.023Z,90.70
2019-05-04T18:41:55.919Z,90.40
2019-05-04T18:44:45.185Z,91.90
2019-05-04T18:47:34.635Z,91.40
2019-05-04T18:50:06.455Z,92.20
2019-05-04T18:52:36.945Z,92.60
2019-05-04T18:55:07.875Z,93.30
2019-05-04T18:57:38.508Z,94.20
2019-05-04T19:00:10.233Z,94.20
2019-05-04T19:02:40.786Z,94.30
2019-05-04T19:05:11.567Z,94.20
2019-05-04T19:08:01.673Z,94.30
2019-05-04T19:10:27.812Z,94.70
2019-05-04T19:12:58.593Z,94.10
2019-05-04T19:15:28.995Z,94.00
2019-05-04T19:17:59.538Z,94.10
2019-05-04T19:20:30.665Z,94.20
2019-05-04T19:23:01.526Z,94.10
2019-05-04T19:25:35.187Z,94.20
2019-05-04T19:28:05.965Z,94.40
2019-05-04T19:30:37.222Z,94.10
2019-05-04T19:33:08.116Z,94.20
2019-05-04T19:35:41.335Z,93.90
2019-05-04T19:38:12.303Z,93.90
2019-05-04T19:40:44.768Z,94.20
2019-05-04T19:43:24.532Z,94.00
2019-05-04T19:46:14.971Z,94.20
2019-05-04T19:48:53.368Z,94.10
2019-05-04T19:51:25.196Z,94.80
2019-05-04T19:53:56.031Z,94.70
2019-05-04T19:56:27.103Z,94.70
2019-05-04T19:58:58.547Z,95.20
2019-05-04T20:01:29.464Z,95.10
2019-05-04T20:04:00.607Z,95.10
2019-05-04T20:06:37.976Z,95.60
2019-05-04T20:09:28.172Z,95.90
2019-05-04T20:12:18.076Z,96.00
2019-05-04T20:15:08.588Z,96.30
2019-05-04T20:17:33.541Z,96.40
2019-05-04T20:19:54.790Z,97.10
2019-05-04T20:22:26.578Z,97.40
2019-05-04T20:24:57.469Z,97.40
2019-05-04T20:27:28.223Z,97.40
2019-05-04T20:29:58.701Z,97.70
2019-05-04T20:32:29.309Z,97.80
2019-05-04T20:34:59.756Z,97.90
2019-05-04T20:37:30.659Z,98.00
2019-05-04T20:40:01.150Z,98.00
2019-05-04T20:42:31.588Z,98.20
2019-05-04T20:45:08.048Z,98.10
2019-05-04T20:47:57.130Z,98.10
2019-05-04T20:50:27.953Z,98.60
2019-05-04T20:53:04.879Z,98.90
2019-05-04T20:55:35.453Z,99.00
2019-05-04T20:58:06.480Z,99.20
2019-05-04T21:00:37.025Z,99.30
2019-05-04T21:03:11.864Z,99.60
2019-05-04T21:05:54.417Z,99.50
2019-05-04T21:08:25.185Z,99.70
2019-05-04T21:10:55.824Z,99.80
2019-05-04T21:13:26.294Z,99.80
2019-05-04T21:15:57.023Z,99.90
2019-05-04T21:18:49.224Z,99.70
2019-05-04T21:21:26.003Z,99.90
2019-05-04T21:23:56.607Z,99.90
2019-05-04T21:26:27.109Z,99.90
2019-05-04T21:28:57.641Z,99.90
2019-05-04T21:31:28.064Z,99.90
2019-05-04T21:33:58.569Z,99.90
2019-05-04T21:36:28.978Z,99.90
2019-05-04T21:38:59.515Z,99.90
2019-05-04T21:41:29.984Z,99.90
2019-05-04T21:44:04.184Z,99.90
2019-05-04T21:46:51.039Z,99.90
2019-05-04T21:49:39.403Z,99.90
2019-05-04T21:52:10.109Z,99.90
2019-05-04T21:54:40.573Z,99.90
2019-05-04T21:57:11.008Z,99.90
2019-05-04T21:59:41.435Z,99.90
2019-05-04T22:02:21.558Z,99.90
2019-05-04T22:04:54.976Z,99.90
2019-05-04T22:07:25.835Z,99.90
2019-05-04T22:09:56.367Z,99.90
2019-05-04T22:12:26.913Z,99.90
2019-05-04T22:14:57.491Z,99.90
2019-05-04T22:17:28.004Z,99.90
2019-05-04T22:19:58.517Z,99.90
2019-05-04T22:22:28.904Z,99.90
2019-05-04T22:24:59.521Z,99.90
2019-05-04T22:27:29.972Z,99.90
2019-05-04T22:30:00.482Z,99.90
2019-05-04T22:32:30.906Z,99.90
2019-05-04T22:35:01.403Z,99.90
2019-05-04T22:37:38.704Z,99.90
2019-05-04T22:40:09.888Z,99.90
2019-05-04T22:42:40.692Z,99.90
2019-05-04T22:45:11.153Z,99.90
2019-05-04T22:47:41.860Z,99.90
2019-05-04T22:50:12.491Z,99.90
2019-05-04T22:52:49.583Z,99.90
2019-05-04T22:55:34.939Z,99.90
2019-05-04T22:58:39.494Z,99.90
2019-05-04T23:01:34.843Z,99.90
2019-05-04T23:04:12.101Z,99.90
2019-05-04T23:06:42.871Z,99.90
2019-05-04T23:09:15.170Z,99.90
2019-05-04T23:11:45.461Z,99.90
2019-05-04T23:14:15.915Z,99.90
2019-05-04T23:16:46.308Z,99.90
2019-05-04T23:19:16.770Z,99.90
2019-05-04T23:21:47.266Z,99.90
2019-05-04T23:24:17.689Z,99.90
2019-05-04T23:26:48.141Z,99.90
2019-05-04T23:29:18.542Z,99.90
2019-05-04T23:31:49.041Z,99.90
2019-05-04T23:34:19.488Z,99.90
2019-05-04T23:36:49.870Z,99.90
2019-05-04T23:39:20.329Z,99.90
2019-05-04T23:41:50.731Z,99.90
2019-05-04T23:44:21.204Z,99.90
2019-05-04T23:47:04.669Z,99.90
2019-05-04T23:49:35.526Z,99.90
2019-05-04T23:52:06.409Z,99.90
2019-05-04T23:54:36.810Z,99.90
2019-05-04T23:57:07.399Z,99.90
2019-05-04T23:59:37.857Z,99.90
